createdAt,value
2022-12-08T14:09:05.070Z,99579.38
2022-12-08T14:11:36.204Z,99586.59
2022-12-08T14:14:04.594Z,99585.56
2022-12-08T14:16:41.365Z,99581.25
2022-12-08T14:19:26.984Z,99584.94
2022-12-08T14:22:00.479Z,99583.31
2022-12-08T14:24:28.255Z,99584.94
2022-12-08T14:26:56.536Z,99585.19
2022-12-08T14:29:29.108Z,99580.88
2022-12-08T14:31:55.469Z,99579.25
2022-12-08T14:34:22.011Z,99585.84
2022-12-08T14:36:48.405Z,99579.66
2022-12-08T14:39:14.864Z,99582.56
2022-12-08T14:41:41.237Z,99585.44
2022-12-08T14:44:21.185Z,99582.16
2022-12-08T14:47:05.723Z,99586.69
2022-12-08T14:49:36.977Z,99588.56
2022-12-08T14:52:08.443Z,99578.09
2022-12-08T14:54:35.316Z,99583.41
2022-12-08T14:57:02.500Z,99589.81
2022-12-08T14:59:33.264Z,99583.88
2022-12-08T15:02:24.572Z,99596.19
2022-12-08T15:04:58.587Z,99601.53
2022-12-08T15:07:27.794Z,99599.88
2022-12-08T15:10:27.257Z,99596.41
2022-12-08T15:12:59.570Z,99599.88
2022-12-08T15:15:26.537Z,99598.25
2022-12-08T15:18:04.425Z,99596.63
2022-12-08T15:20:45.517Z,99591.28
2022-12-08T15:23:20.290Z,99596.63
2022-12-08T15:25:46.712Z,99600.34
2022-12-08T15:28:14.147Z,99604.84
2022-12-08T15:30:40.628Z,99598.69
2022-12-08T15:33:07.051Z,99606.69
2022-12-08T15:35:38.837Z,99612.03
2022-12-08T15:38:07.478Z,99611.00
2022-12-08T15:40:33.845Z,99611.00
2022-12-08T15:43:00.226Z,99604.66
2022-12-08T15:45:30.410Z,99608.34
2022-12-08T15:47:56.783Z,99606.47
2022-12-08T15:50:23.639Z,99616.94
2022-12-08T15:52:50.758Z,99612.66
2022-12-08T15:55:18.631Z,99618.00
2022-12-08T15:58:51.270Z,99614.28
2022-12-08T16:03:59.873Z,99614.28
2022-12-08T16:06:57.392Z,99620.66
2022-12-08T16:09:11.247Z,99620.44
2022-12-08T16:12:06.333Z,99618.00
2022-12-08T16:15:39.754Z,99624.38
2022-12-08T16:17:21.191Z,99622.50
2022-12-08T16:19:47.659Z,99627.25
2022-12-08T16:22:52.427Z,99623.75
2022-12-08T16:25:17.842Z,99631.97
2022-12-08T16:28:12.399Z,99637.53
2022-12-08T16:30:32.014Z,99631.41
2022-12-08T16:32:58.459Z,99640.22
2022-12-08T16:35:24.826Z,99638.56
2022-12-08T16:37:51.183Z,99635.91
2022-12-08T16:40:17.744Z,99626.25
2022-12-08T16:42:44.362Z,99632.41
2022-12-08T16:45:18.292Z,99630.78
2022-12-08T16:47:46.253Z,99638.56
2022-12-08T16:50:17.147Z,99633.66
2022-12-08T16:52:43.571Z,99644.94
2022-12-08T16:55:14.676Z,99640.66
2022-12-08T16:57:41.491Z,99646.78
2022-12-08T17:00:09.080Z,99639.00
2022-12-08T17:02:35.864Z,99642.47
2022-12-08T17:05:02.333Z,99640.66
2022-12-08T17:07:28.749Z,99641.47
2022-12-08T17:09:55.128Z,99637.97
2022-12-08T17:12:21.537Z,99646.00
2022-12-08T17:14:47.899Z,99643.31
2022-12-08T17:17:14.257Z,99646.00
2022-12-08T17:19:40.661Z,99640.66
2022-12-08T17:22:07.043Z,99639.00
2022-12-08T17:24:33.544Z,99639.00
2022-12-08T17:27:04.245Z,99640.03
2022-12-08T17:29:31.540Z,99641.06
2022-12-08T17:31:58.733Z,99642.13
2022-12-08T17:34:25.206Z,99644.78
2022-12-08T17:36:51.789Z,99646.84
2022-12-08T17:39:19.240Z,99642.25
2022-12-08T17:41:45.920Z,99645.00
2022-12-08T17:44:13.582Z,99646.44
2022-12-08T17:46:43.396Z,99642.44
2022-12-08T17:49:15.768Z,99647.38
2022-12-08T17:51:42.168Z,99648.53
2022-12-08T17:54:08.597Z,99655.88
2022-12-08T17:56:34.944Z,99651.63
2022-12-08T17:59:02.681Z,99655.28
2022-12-08T23:11:31.284Z,99729.72
2022-12-08T23:13:59.857Z,99731.75
2022-12-08T23:16:26.725Z,99727.44
2022-12-08T23:18:53.605Z,99724.16
2022-12-08T23:21:20.365Z,99726.81
2022-12-08T23:23:46.948Z,99721.09
2022-12-08T23:26:20.462Z,99726.56
2022-12-08T23:28:47.369Z,99724.09
2022-12-08T23:31:13.939Z,99732.47
2022-12-08T23:33:40.924Z,99730.00
2022-12-08T23:36:07.836Z,99726.09
2022-12-08T23:38:34.486Z,99725.44
2022-12-08T23:41:05.508Z,99726.66
2022-12-08T23:43:32.081Z,99727.84
2022-12-08T23:45:58.568Z,99723.75
2022-12-08T23:48:25.129Z,99715.97
2022-12-08T23:50:51.531Z,99720.84
2022-12-08T23:53:18.018Z,99718.38
2022-12-08T23:55:44.582Z,99718.78
2022-12-08T23:58:11.400Z,99709.34
